sensor_id;sensor_type;location;lat;lon;timestamp;pressure;altitude;pressure_sealevel;temperature;humidity
62031;BME280;62035;52.094;5.112;2023-05-22T00:00:07;101704.22;;;16.81;100.00
62031;BME280;62035;52.094;5.112;2023-05-22T00:02:36;101708.44;;;16.67;100.00
62031;BME280;62035;52.094;5.112;2023-05-22T00:05:08;101682.88;;;16.63;100.00
62031;BME280;62035;52.094;5.112;2023-05-22T00:07:38;101688.63;;;16.69;100.00
62031;BME280;62035;52.094;5.112;2023-05-22T00:10:09;101670.47;;;16.79;100.00
62031;BME280;62035;52.094;5.112;2023-05-22T00:12:37;101672.47;;;16.93;100.00
62031;BME280;62035;52.094;5.112;2023-05-22T00:15:05;101680.19;;;16.88;100.00
62031;BME280;62035;52.094;5.112;2023-05-22T00:17:33;101667.06;;;17.09;100.00
62031;BME280;62035;52.094;5.112;2023-05-22T00:20:01;101658.25;;;17.23;100.00
62031;BME280;62035;52.094;5.112;2023-05-22T00:22:33;101649.84;;;17.26;100.00
62031;BME280;62035;52.094;5.112;2023-05-22T00:25:03;101650.13;;;17.40;100.00
62031;BME280;62035;52.094;5.112;2023-05-22T00:27:31;101643.50;;;17.19;100.00
62031;BME280;62035;52.094;5.112;2023-05-22T00:29:59;101625.94;;;17.31;100.00
62031;BME280;62035;52.094;5.112;2023-05-22T00:32:27;101624.38;;;17.06;100.00
62031;BME280;62035;52.094;5.112;2023-05-22T00:34:54;101618.84;;;16.99;100.00
62031;BME280;62035;52.094;5.112;2023-05-22T00:37:22;101622.84;;;17.12;100.00
62031;BME280;62035;52.094;5.112;2023-05-22T00:39:50;101616.84;;;16.93;100.00
62031;BME280;62035;52.094;5.112;2023-05-22T00:42:19;101625.78;;;16.78;100.00
62031;BME280;62035;52.094;5.112;2023-05-22T00:44:47;101632.53;;;16.65;100.00
62031;BME280;62035;52.094;5.112;2023-05-22T00:47:15;101632.50;;;16.74;100.00
62031;BME280;62035;52.094;5.112;2023-05-22T00:49:42;101629.13;;;16.63;100.00
62031;BME280;62035;52.094;5.112;2023-05-22T00:52:13;101624.13;;;16.69;100.00
62031;BME280;62035;52.094;5.112;2023-05-22T00:54:42;101624.13;;;16.69;100.00
62031;BME280;62035;52.094;5.112;2023-05-22T00:57:10;101622.59;;;16.74;100.00
62031;BME280;62035;52.094;5.112;2023-05-22T00:59:40;101625.13;;;16.76;100.00
62031;BME280;62035;52.094;5.112;2023-05-22T01:02:08;101626.13;;;16.75;100.00
62031;BME280;62035;52.094;5.112;2023-05-22T01:04:36;101626.13;;;16.75;100.00
62031;BME280;62035;52.094;5.112;2023-05-22T01:07:03;101634.19;;;16.75;100.00
62031;BME280;62035;52.094;5.112;2023-05-22T01:09:32;101635.84;;;16.84;100.00
62031;BME280;62035;52.094;5.112;2023-05-22T01:12:07;101625.91;;;16.92;100.00
62031;BME280;62035;52.094;5.112;2023-05-22T01:14:48;101620.34;;;16.94;100.00
62031;BME280;62035;52.094;5.112;2023-05-22T01:17:30;101611.63;;;16.92;100.00
62031;BME280;62035;52.094;5.112;2023-05-22T01:20:11;101612.47;;;16.84;100.00
62031;BME280;62035;52.094;5.112;2023-05-22T01:23:19;101604.25;;;16.86;100.00
62031;BME280;62035;52.094;5.112;2023-05-22T01:29:35;101617.56;;;16.71;100.00
62031;BME280;62035;52.094;5.112;2023-05-22T01:32:15;101611.03;;;16.65;100.00
62031;BME280;62035;52.094;5.112;2023-05-22T01:34:50;101598.25;;;16.67;100.00
62031;BME280;62035;52.094;5.112;2023-05-22T01:37:20;101605.81;;;16.64;100.00
62031;BME280;62035;52.094;5.112;2023-05-22T01:39:50;101603.44;;;16.45;100.00
62031;BME280;62035;52.094;5.112;2023-05-22T01:42:18;101608.31;;;16.49;100.00
62031;BME280;62035;52.094;5.112;2023-05-22T01:44:47;101612.34;;;16.45;100.00
62031;BME280;62035;52.094;5.112;2023-05-22T01:47:16;101606.13;;;16.45;100.00
62031;BME280;62035;52.094;5.112;2023-05-22T01:49:44;101608.63;;;16.54;100.00
62031;BME280;62035;52.094;5.112;2023-05-22T01:52:19;101612.16;;;16.63;100.00
62031;BME280;62035;52.094;5.112;2023-05-22T01:54:57;101602.94;;;16.65;100.00
62031;BME280;62035;52.094;5.112;2023-05-22T01:57:33;101587.47;;;16.51;100.00
62031;BME280;62035;52.094;5.112;2023-05-22T02:00:11;101596.22;;;16.53;100.00
62031;BME280;62035;52.094;5.112;2023-05-22T02:02:42;101591.50;;;16.63;100.00
62031;BME280;62035;52.094;5.112;2023-05-22T02:05:15;101586.09;;;16.80;100.00
62031;BME280;62035;52.094;5.112;2023-05-22T02:07:45;101591.50;;;16.55;100.00
62031;BME280;62035;52.094;5.112;2023-05-22T02:10:14;101590.19;;;16.35;100.00
62031;BME280;62035;52.094;5.112;2023-05-22T02:12:43;101565.47;;;16.48;100.00
62031;BME280;62035;52.094;5.112;2023-05-22T02:15:11;101578.91;;;16.56;100.00
62031;BME280;62035;52.094;5.112;2023-05-22T02:17:39;101572.34;;;16.58;100.00
62031;BME280;62035;52.094;5.112;2023-05-22T02:20:11;101577.91;;;16.49;100.00
62031;BME280;62035;52.094;5.112;2023-05-22T02:22:40;101576.22;;;16.40;100.00
62031;BME280;62035;52.094;5.112;2023-05-22T02:25:09;101574.03;;;16.59;100.00
62031;BME280;62035;52.094;5.112;2023-05-22T02:27:40;101569.38;;;16.37;100.00
62031;BME280;62035;52.094;5.112;2023-05-22T02:30:08;101566.66;;;16.45;100.00
62031;BME280;62035;52.094;5.112;2023-05-22T02:32:37;101569.84;;;16.41;100.00
62031;BME280;62035;52.094;5.112;2023-05-22T02:35:06;101570.69;;;16.41;100.00
62031;BME280;62035;52.094;5.112;2023-05-22T02:37:35;101562.47;;;16.51;100.00
62031;BME280;62035;52.094;5.112;2023-05-22T02:40:04;101548.56;;;16.23;100.00
62031;BME280;62035;52.094;5.112;2023-05-22T02:42:33;101564.84;;;16.21;100.00
62031;BME280;62035;52.094;5.112;2023-05-22T02:45:01;101564.84;;;16.13;100.00
62031;BME280;62035;52.094;5.112;2023-05-22T02:47:29;101557.97;;;16.19;100.00
62031;BME280;62035;52.094;5.112;2023-05-22T02:49:56;101565.19;;;16.34;100.00
62031;BME280;62035;52.094;5.112;2023-05-22T02:52:24;101556.97;;;16.20;100.00
62031;BME280;62035;52.094;5.112;2023-05-22T02:54:54;101553.94;;;16.23;100.00
62031;BME280;62035;52.094;5.112;2023-05-22T02:57:22;101557.13;;;16.10;100.00
62031;BME280;62035;52.094;5.112;2023-05-22T02:59:49;101552.59;;;16.11;100.00
62031;BME280;62035;52.094;5.112;2023-05-22T03:02:17;101548.41;;;16.08;100.00
62031;BME280;62035;52.094;5.112;2023-05-22T03:04:45;101550.06;;;16.09;100.00
62031;BME280;62035;52.094;5.112;2023-05-22T03:07:12;101556.78;;;16.05;100.00
62031;BME280;62035;52.094;5.112;2023-05-22T03:09:40;101545.22;;;15.96;100.00
62031;BME280;62035;52.094;5.112;2023-05-22T03:12:09;101547.22;;;15.86;100.00
62031;BME280;62035;52.094;5.112;2023-05-22T03:14:36;101552.75;;;15.85;100.00
62031;BME280;62035;52.094;5.112;2023-05-22T03:17:04;101556.09;;;15.71;100.00
62031;BME280;62035;52.094;5.112;2023-05-22T03:19:32;101553.94;;;15.82;100.00
62031;BME280;62035;52.094;5.112;2023-05-22T03:21:59;101552.25;;;15.81;100.00
62031;BME280;62035;52.094;5.112;2023-05-22T03:24:27;101561.31;;;15.80;100.00
62031;BME280;62035;52.094;5.112;2023-05-22T03:26:54;101559.13;;;15.84;100.00
62031;BME280;62035;52.094;5.112;2023-05-22T03:29:23;101553.41;;;15.79;100.00
62031;BME280;62035;52.094;5.112;2023-05-22T03:31:52;101550.53;;;15.64;100.00
62031;BME280;62035;52.094;5.112;2023-05-22T03:34:20;101554.53;;;15.60;100.00
62031;BME280;62035;52.094;5.112;2023-05-22T03:36:48;101548.84;;;15.55;100.00
62031;BME280;62035;52.094;5.112;2023-05-22T03:39:16;101540.50;;;15.58;100.00
62031;BME280;62035;52.094;5.112;2023-05-22T03:41:43;101537.75;;;15.50;100.00
62031;BME280;62035;52.094;5.112;2023-05-22T03:44:11;101538.13;;;15.63;100.00
62031;BME280;62035;52.094;5.112;2023-05-22T03:46:40;101541.66;;;15.72;100.00
62031;BME280;62035;52.094;5.112;2023-05-22T03:49:07;101530.44;;;15.84;100.00
62031;BME280;62035;52.094;5.112;2023-05-22T03:51:35;101537.66;;;15.84;100.00
62031;BME280;62035;52.094;5.112;2023-05-22T03:54:03;101535.47;;;15.71;100.00
62031;BME280;62035;52.094;5.112;2023-05-22T03:56:31;101537.97;;;15.56;100.00
62031;BME280;62035;52.094;5.112;2023-05-22T03:58:58;101538.66;;;15.58;100.00
62031;BME280;62035;52.094;5.112;2023-05-22T04:01:26;101530.72;;;15.49;100.00
62031;BME280;62035;52.094;5.112;2023-05-22T04:03:56;101528.38;;;15.54;100.00
62031;BME280;62035;52.094;5.112;2023-05-22T04:06:23;101540.97;;;15.61;100.00
62031;BME280;62035;52.094;5.112;2023-05-22T04:08:51;101540.31;;;15.67;100.00
62031;BME280;62035;52.094;5.112;2023-05-22T04:11:19;101535.28;;;15.64;100.00
62031;BME280;62035;52.094;5.112;2023-05-22T04:13:48;101538.47;;;15.76;100.00
62031;BME280;62035;52.094;5.112;2023-05-22T04:16:16;101539.16;;;15.70;100.00
62031;BME280;62035;52.094;5.112;2023-05-22T04:18:44;101553.22;;;15.64;100.00
62031;BME280;62035;52.094;5.112;2023-05-22T04:21:12;101558.38;;;15.49;100.00
62031;BME280;62035;52.094;5.112;2023-05-22T04:23:40;101566.91;;;15.45;100.00
62031;BME280;62035;52.094;5.112;2023-05-22T04:26:09;101553.19;;;15.56;100.00
62031;BME280;62035;52.094;5.112;2023-05-22T04:28:37;101561.06;;;15.49;100.00
62031;BME280;62035;52.094;5.112;2023-05-22T04:31:04;101575.53;;;15.56;100.00
62031;BME280;62035;52.094;5.112;2023-05-22T04:33:32;101578.16;;;15.48;100.00
62031;BME280;62035;52.094;5.112;2023-05-22T04:36:00;101587.03;;;15.49;100.00
62031;BME280;62035;52.094;5.112;2023-05-22T04:38:29;101585.16;;;15.41;100.00
62031;BME280;62035;52.094;5.112;2023-05-22T04:41:02;101591.38;;;15.42;100.00
62031;BME280;62035;52.094;5.112;2023-05-22T04:43:29;101599.41;;;15.42;100.00
62031;BME280;62035;52.094;5.112;2023-05-22T04:45:57;101601.44;;;15.48;100.00
62031;BME280;62035;52.094;5.112;2023-05-22T04:48:25;101593.47;;;15.64;100.00
62031;BME280;62035;52.094;5.112;2023-05-22T04:50:53;101587.78;;;15.75;100.00
62031;BME280;62035;52.094;5.112;2023-05-22T04:53:22;101594.47;;;15.63;100.00
62031;BME280;62035;52.094;5.112;2023-05-22T04:55:51;101582.63;;;15.82;100.00
62031;BME280;62035;52.094;5.112;2023-05-22T04:58:18;101590.16;;;15.78;100.00
62031;BME280;62035;52.094;5.112;2023-05-22T05:00:46;101595.22;;;15.97;100.00
62031;BME280;62035;52.094;5.112;2023-05-22T05:03:14;101590.16;;;16.02;100.00
62031;BME280;62035;52.094;5.112;2023-05-22T05:05:42;101595.22;;;16.14;100.00
62031;BME280;62035;52.094;5.112;2023-05-22T05:08:09;101594.22;;;16.23;100.00
62031;BME280;62035;52.094;5.112;2023-05-22T05:10:37;101603.59;;;16.51;100.00
62031;BME280;62035;52.094;5.112;2023-05-22T05:13:06;101591.19;;;16.66;100.00
62031;BME280;62035;52.094;5.112;2023-05-22T05:15:33;101596.94;;;17.19;100.00
62031;BME280;62035;52.094;5.112;2023-05-22T05:18:01;101579.44;;;17.54;100.00
62031;BME280;62035;52.094;5.112;2023-05-22T05:20:29;101579.13;;;17.49;100.00
62031;BME280;62035;52.094;5.112;2023-05-22T05:22:56;101573.72;;;17.57;100.00
62031;BME280;62035;52.094;5.112;2023-05-22T05:25:24;101572.97;;;17.63;100.00
62031;BME280;62035;52.094;5.112;2023-05-22T05:27:51;101585.06;;;17.75;100.00
62031;BME280;62035;52.094;5.112;2023-05-22T05:30:21;101575.78;;;17.78;100.00
62031;BME280;62035;52.094;5.112;2023-05-22T05:32:48;101570.63;;;18.14;100.00
62031;BME280;62035;52.094;5.112;2023-05-22T05:35:16;101579.59;;;18.29;100.00
62031;BME280;62035;52.094;5.112;2023-05-22T05:37:43;101578.88;;;18.35;100.00
62031;BME280;62035;52.094;5.112;2023-05-22T05:40:12;101574.50;;;18.72;100.00
62031;BME280;62035;52.094;5.112;2023-05-22T05:42:40;101569.00;;;18.94;100.00
62031;BME280;62035;52.094;5.112;2023-05-22T05:45:08;101571.06;;;19.07;100.00
62031;BME280;62035;52.094;5.112;2023-05-22T05:47:38;101561.94;;;18.93;100.00
62031;BME280;62035;52.094;5.112;2023-05-22T05:50:07;101564.66;;;19.08;100.00
62031;BME280;62035;52.094;5.112;2023-05-22T05:52:34;101566.72;;;19.42;100.00
62031;BME280;62035;52.094;5.112;2023-05-22T05:55:02;101563.47;;;19.83;100.00
62031;BME280;62035;52.094;5.112;2023-05-22T05:57:30;101559.38;;;20.15;100.00
62031;BME280;62035;52.094;5.112;2023-05-22T05:59:58;101561.66;;;20.11;100.00
62031;BME280;62035;52.094;5.112;2023-05-22T06:02:26;101565.00;;;20.13;100.00
62031;BME280;62035;52.094;5.112;2023-05-22T06:04:55;101554.13;;;20.07;100.00
62031;BME280;62035;52.094;5.112;2023-05-22T06:07:23;101555.81;;;19.86;100.00
62031;BME280;62035;52.094;5.112;2023-05-22T06:09:53;101561.47;;;19.91;100.00
62031;BME280;62035;52.094;5.112;2023-05-22T06:12:21;101556.97;;;19.98;100.00
62031;BME280;62035;52.094;5.112;2023-05-22T06:14:48;101564.66;;;20.23;100.00
62031;BME280;62035;52.094;5.112;2023-05-22T06:17:16;101558.38;;;20.16;100.00
62031;BME280;62035;52.094;5.112;2023-05-22T06:19:43;101557.38;;;19.95;100.00
62031;BME280;62035;52.094;5.112;2023-05-22T06:22:12;101566.03;;;20.12;100.00
62031;BME280;62035;52.094;5.112;2023-05-22T06:24:41;101553.13;;;20.36;100.00
62031;BME280;62035;52.094;5.112;2023-05-22T06:27:09;101562.13;;;20.43;100.00
62031;BME280;62035;52.094;5.112;2023-05-22T06:29:36;101567.84;;;20.54;100.00
62031;BME280;62035;52.094;5.112;2023-05-22T06:32:04;101564.16;;;20.34;100.00
62031;BME280;62035;52.094;5.112;2023-05-22T06:34:32;101559.03;;;20.39;100.00
62031;BME280;62035;52.094;5.112;2023-05-22T06:37:00;101556.97;;;20.48;100.00
62031;BME280;62035;52.094;5.112;2023-05-22T06:39:30;101552.34;;;20.42;100.00
62031;BME280;62035;52.094;5.112;2023-05-22T06:41:57;101558.66;;;20.77;100.00
62031;BME280;62035;52.094;5.112;2023-05-22T06:44:25;101564.44;;;21.08;100.00
62031;BME280;62035;52.094;5.112;2023-05-22T06:46:52;101560.47;;;21.04;100.00
62031;BME280;62035;52.094;5.112;2023-05-22T06:49:20;101571.63;;;20.94;100.00
62031;BME280;62035;52.094;5.112;2023-05-22T06:51:47;101571.28;;;20.70;100.00
62031;BME280;62035;52.094;5.112;2023-05-22T06:54:15;101566.75;;;20.49;100.00
62031;BME280;62035;52.094;5.112;2023-05-22T06:56:45;101582.94;;;20.70;100.00
62031;BME280;62035;52.094;5.112;2023-05-22T06:59:13;101577.09;;;20.67;100.00
62031;BME280;62035;52.094;5.112;2023-05-22T07:01:40;101581.53;;;20.81;100.00
62031;BME280;62035;52.094;5.112;2023-05-22T07:04:08;101580.19;;;20.98;100.00
62031;BME280;62035;52.094;5.112;2023-05-22T07:06:38;101583.31;;;20.95;100.00
62031;BME280;62035;52.094;5.112;2023-05-22T07:09:07;101589.16;;;20.64;100.00
62031;BME280;62035;52.094;5.112;2023-05-22T07:11:36;101584.03;;;20.82;100.00
62031;BME280;62035;52.094;5.112;2023-05-22T07:14:05;101578.44;;;20.84;100.00
62031;BME280;62035;52.094;5.112;2023-05-22T07:16:33;101592.66;;;20.92;100.00
62031;BME280;62035;52.094;5.112;2023-05-22T07:19:02;101605.66;;;20.76;100.00
62031;BME280;62035;52.094;5.112;2023-05-22T07:21:29;101601.94;;;20.83;100.00
62031;BME280;62035;52.094;5.112;2023-05-22T07:23:57;101599.13;;;20.98;100.00
62031;BME280;62035;52.094;5.112;2023-05-22T07:26:25;101592.38;;;21.15;100.00
62031;BME280;62035;52.094;5.112;2023-05-22T07:28:52;101596.88;;;21.36;100.00
62031;BME280;62035;52.094;5.112;2023-05-22T07:31:21;101594.34;;;21.35;100.00
62031;BME280;62035;52.094;5.112;2023-05-22T07:33:49;101596.97;;;21.69;100.00
62031;BME280;62035;52.094;5.112;2023-05-22T07:36:16;101595.56;;;21.80;100.00
62031;BME280;62035;52.094;5.112;2023-05-22T07:38:45;101574.25;;;21.70;100.00
62031;BME280;62035;52.094;5.112;2023-05-22T07:41:13;101589.31;;;21.79;100.00
62031;BME280;62035;52.094;5.112;2023-05-22T07:43:41;101594.25;;;21.69;100.00
62031;BME280;62035;52.094;5.112;2023-05-22T07:46:09;101601.84;;;21.93;100.00
62031;BME280;62035;52.094;5.112;2023-05-22T07:48:38;101600.50;;;21.56;100.00
62031;BME280;62035;52.094;5.112;2023-05-22T07:51:06;101600.09;;;21.66;100.00
62031;BME280;62035;52.094;5.112;2023-05-22T07:53:33;101597.84;;;21.83;100.00
62031;BME280;62035;52.094;5.112;2023-05-22T07:56:01;101595.13;;;21.76;100.00
62031;BME280;62035;52.094;5.112;2023-05-22T07:58:29;101596.63;;;21.85;100.00
62031;BME280;62035;52.094;5.112;2023-05-22T08:00:57;101601.00;;;22.00;100.00
62031;BME280;62035;52.094;5.112;2023-05-22T08:03:24;101596.25;;;22.15;100.00
62031;BME280;62035;52.094;5.112;2023-05-22T08:05:53;101594.81;;;22.25;100.00
62031;BME280;62035;52.094;5.112;2023-05-22T08:08:21;101599.22;;;22.33;100.00
62031;BME280;62035;52.094;5.112;2023-05-22T08:10:48;101597.75;;;22.24;100.00
62031;BME280;62035;52.094;5.112;2023-05-22T08:13:17;101605.25;;;22.42;100.00
62031;BME280;62035;52.094;5.112;2023-05-22T08:15:45;101602.53;;;22.61;100.00
62031;BME280;62035;52.094;5.112;2023-05-22T08:18:12;101600.16;;;23.11;100.00
62031;BME280;62035;52.094;5.112;2023-05-22T08:20:40;101608.75;;;23.08;100.00
62031;BME280;62035;52.094;5.112;2023-05-22T08:23:09;101606.47;;;22.99;100.00
62031;BME280;62035;52.094;5.112;2023-05-22T08:25:37;101598.97;;;22.94;100.00
62031;BME280;62035;52.094;5.112;2023-05-22T08:28:04;101600.81;;;23.00;100.00
62031;BME280;62035;52.094;5.112;2023-05-22T08:30:32;101598.56;;;22.77;100.00
62031;BME280;62035;52.094;5.112;2023-05-22T08:32:59;101595.50;;;23.25;100.00
62031;BME280;62035;52.094;5.112;2023-05-22T08:35:27;101592.97;;;23.37;100.00
62031;BME280;62035;52.094;5.112;2023-05-22T08:37:54;101590.03;;;23.38;100.00
62031;BME280;62035;52.094;5.112;2023-05-22T08:40:33;101586.47;;;23.44;100.00
62031;BME280;62035;52.094;5.112;2023-05-22T08:43:03;101595.22;;;23.46;100.00
62031;BME280;62035;52.094;5.112;2023-05-22T08:45:31;101587.56;;;23.75;100.00
62031;BME280;62035;52.094;5.112;2023-05-22T08:48:03;101590.00;;;23.89;100.00
62031;BME280;62035;52.094;5.112;2023-05-22T08:50:33;101594.84;;;23.87;100.00
62031;BME280;62035;52.094;5.112;2023-05-22T08:53:06;101586.22;;;23.59;100.00
62031;BME280;62035;52.094;5.112;2023-05-22T08:55:36;101562.91;;;23.32;100.00
62031;BME280;62035;52.094;5.112;2023-05-22T08:58:04;101586.28;;;23.33;100.00
62031;BME280;62035;52.094;5.112;2023-05-22T09:00:32;101585.88;;;23.36;100.00
62031;BME280;62035;52.094;5.112;2023-05-22T09:03:00;101591.72;;;23.84;100.00
62031;BME280;62035;52.094;5.112;2023-05-22T09:05:28;101576.22;;;24.16;100.00
62031;BME280;62035;52.094;5.112;2023-05-22T09:07:56;101575.75;;;23.94;100.00
62031;BME280;62035;52.094;5.112;2023-05-22T09:10:24;101580.97;;;23.96;100.00
62031;BME280;62035;52.094;5.112;2023-05-22T09:13:03;101576.16;;;24.22;100.00
62031;BME280;62035;52.094;5.112;2023-05-22T09:15:33;101573.88;;;24.26;100.00
62031;BME280;62035;52.094;5.112;2023-05-22T09:18:02;101571.97;;;24.26;100.00
62031;BME280;62035;52.094;5.112;2023-05-22T09:20:33;101570.72;;;24.22;100.00
62031;BME280;62035;52.094;5.112;2023-05-22T09:23:09;101563.63;;;24.21;100.00
62031;BME280;62035;52.094;5.112;2023-05-22T09:25:37;101558.63;;;24.18;100.00
62031;BME280;62035;52.094;5.112;2023-05-22T09:28:07;101569.81;;;24.35;100.00
62031;BME280;62035;52.094;5.112;2023-05-22T09:30:35;101562.00;;;24.14;100.00
62031;BME280;62035;52.094;5.112;2023-05-22T09:33:03;101566.13;;;24.23;100.00
62031;BME280;62035;52.094;5.112;2023-05-22T09:35:34;101568.91;;;24.41;100.00
62031;BME280;62035;52.094;5.112;2023-05-22T09:38:03;101568.34;;;24.57;100.00
62031;BME280;62035;52.094;5.112;2023-05-22T09:40:33;101570.06;;;24.77;100.00
62031;BME280;62035;52.094;5.112;2023-05-22T09:43:07;101565.50;;;24.71;100.00
62031;BME280;62035;52.094;5.112;2023-05-22T09:45:35;101554.13;;;24.99;100.00
62031;BME280;62035;52.094;5.112;2023-05-22T09:48:05;101566.78;;;24.86;100.00
62031;BME280;62035;52.094;5.112;2023-05-22T09:50:35;101569.34;;;24.81;100.00
62031;BME280;62035;52.094;5.112;2023-05-22T09:53:04;101561.94;;;24.70;100.00
62031;BME280;62035;52.094;5.112;2023-05-22T09:55:32;101562.50;;;24.97;100.00
62031;BME280;62035;52.094;5.112;2023-05-22T09:58:02;101557.66;;;24.99;100.00
62031;BME280;62035;52.094;5.112;2023-05-22T10:00:35;101544.31;;;25.46;100.00
62031;BME280;62035;52.094;5.112;2023-05-22T10:03:07;101548.88;;;25.64;100.00
62031;BME280;62035;52.094;5.112;2023-05-22T10:05:40;101549.72;;;25.94;100.00
62031;BME280;62035;52.094;5.112;2023-05-22T10:08:13;101558.34;;;26.03;100.00
62031;BME280;62035;52.094;5.112;2023-05-22T10:10:49;101564.09;;;26.24;100.00
62031;BME280;62035;52.094;5.112;2023-05-22T10:13:18;101559.28;;;26.62;100.00
62031;BME280;62035;52.094;5.112;2023-05-22T10:15:49;101558.09;;;26.46;100.00
62031;BME280;62035;52.094;5.112;2023-05-22T10:18:17;101557.63;;;26.61;100.00
62031;BME280;62035;52.094;5.112;2023-05-22T10:20:45;101553.47;;;26.58;100.00
62031;BME280;62035;52.094;5.112;2023-05-22T10:23:13;101557.59;;;26.84;100.00
62031;BME280;62035;52.094;5.112;2023-05-22T10:25:42;101534.44;;;26.28;100.00
62031;BME280;62035;52.094;5.112;2023-05-22T10:28:10;101556.56;;;26.38;100.00
62031;BME280;62035;52.094;5.112;2023-05-22T10:30:48;101552.16;;;26.37;100.00
62031;BME280;62035;52.094;5.112;2023-05-22T10:33:24;101550.84;;;26.40;100.00
62031;BME280;62035;52.094;5.112;2023-05-22T10:36:00;101543.56;;;26.10;100.00
62031;BME280;62035;52.094;5.112;2023-05-22T10:38:52;101552.72;;;26.28;100.00
62031;BME280;62035;52.094;5.112;2023-05-22T10:41:30;101540.63;;;26.58;100.00
62031;BME280;62035;52.094;5.112;2023-05-22T10:43:58;101545.75;;;26.55;100.00
62031;BME280;62035;52.094;5.112;2023-05-22T10:46:32;101545.47;;;26.91;100.00
62031;BME280;62035;52.094;5.112;2023-05-22T10:48:59;101546.88;;;27.17;100.00
62031;BME280;62035;52.094;5.112;2023-05-22T10:51:27;101549.97;;;26.86;100.00
62031;BME280;62035;52.094;5.112;2023-05-22T10:53:59;101549.75;;;27.11;100.00
62031;BME280;62035;52.094;5.112;2023-05-22T10:56:31;101545.34;;;27.10;100.00
62031;BME280;62035;52.094;5.112;2023-05-22T10:59:02;101551.34;;;27.23;100.00
62031;BME280;62035;52.094;5.112;2023-05-22T11:01:33;101545.63;;;27.25;100.00
62031;BME280;62035;52.094;5.112;2023-05-22T11:04:09;101534.06;;;27.35;100.00
62031;BME280;62035;52.094;5.112;2023-05-22T11:06:38;101538.53;;;27.52;100.00
62031;BME280;62035;52.094;5.112;2023-05-22T11:09:16;101535.59;;;27.71;100.00
62031;BME280;62035;52.094;5.112;2023-05-22T11:11:46;101540.19;;;27.82;100.00
62031;BME280;62035;52.094;5.112;2023-05-22T11:14:30;101529.72;;;27.79;100.00
62031;BME280;62035;52.094;5.112;2023-05-22T11:17:00;101529.00;;;28.00;100.00
62031;BME280;62035;52.094;5.112;2023-05-22T11:19:28;101530.97;;;27.71;100.00
62031;BME280;62035;52.094;5.112;2023-05-22T11:21:59;101529.50;;;27.80;100.00
62031;BME280;62035;52.094;5.112;2023-05-22T11:24:31;101527.84;;;28.13;100.00
62031;BME280;62035;52.094;5.112;2023-05-22T11:27:00;101525.59;;;27.76;100.00
62031;BME280;62035;52.094;5.112;2023-05-22T11:29:29;101530.31;;;27.81;100.00
62031;BME280;62035;52.094;5.112;2023-05-22T11:31:57;101523.84;;;27.87;100.00
62031;BME280;62035;52.094;5.112;2023-05-22T11:34:27;101520.38;;;27.92;100.00
62031;BME280;62035;52.094;5.112;2023-05-22T11:36:58;101525.47;;;28.33;100.00
62031;BME280;62035;52.094;5.112;2023-05-22T11:39:26;101522.50;;;28.95;100.00
62031;BME280;62035;52.094;5.112;2023-05-22T11:41:53;101518.16;;;28.77;100.00
62031;BME280;62035;52.094;5.112;2023-05-22T11:44:21;101510.91;;;27.99;100.00
62031;BME280;62035;52.094;5.112;2023-05-22T11:46:48;101520.03;;;27.71;100.00
62031;BME280;62035;52.094;5.112;2023-05-22T11:49:17;101521.28;;;27.23;100.00
62031;BME280;62035;52.094;5.112;2023-05-22T11:51:49;101517.19;;;27.38;100.00
62031;BME280;62035;52.094;5.112;2023-05-22T11:54:18;101511.84;;;26.91;100.00
62031;BME280;62035;52.094;5.112;2023-05-22T11:56:46;101515.66;;;27.02;100.00
62031;BME280;62035;52.094;5.112;2023-05-22T11:59:14;101513.28;;;27.34;100.00
62031;BME280;62035;52.094;5.112;2023-05-22T12:01:41;101519.22;;;27.02;100.00
62031;BME280;62035;52.094;5.112;2023-05-22T12:04:09;101518.06;;;27.55;100.00
62031;BME280;62035;52.094;5.112;2023-05-22T12:06:38;101522.13;;;27.98;100.00
62031;BME280;62035;52.094;5.112;2023-05-22T12:09:06;101519.91;;;27.95;100.00
62031;BME280;62035;52.094;5.112;2023-05-22T12:11:33;101527.53;;;29.03;100.00
62031;BME280;62035;52.094;5.112;2023-05-22T12:14:02;101520.63;;;29.23;100.00
62031;BME280;62035;52.094;5.112;2023-05-22T12:16:33;101527.31;;;28.49;100.00
62031;BME280;62035;52.094;5.112;2023-05-22T12:19:06;101527.63;;;28.31;100.00
62031;BME280;62035;52.094;5.112;2023-05-22T12:21:34;101523.19;;;28.13;100.00
62031;BME280;62035;52.094;5.112;2023-05-22T12:24:07;101529.50;;;28.14;100.00
62031;BME280;62035;52.094;5.112;2023-05-22T12:26:35;101524.34;;;27.84;100.00
62031;BME280;62035;52.094;5.112;2023-05-22T12:29:03;101517.06;;;27.89;100.00
62031;BME280;62035;52.094;5.112;2023-05-22T12:31:34;101521.44;;;28.58;100.00
62031;BME280;62035;52.094;5.112;2023-05-22T12:34:05;101523.22;;;27.97;100.00
62031;BME280;62035;52.094;5.112;2023-05-22T12:36:34;101521.69;;;27.72;100.00
62031;BME280;62035;52.094;5.112;2023-05-22T12:39:07;101532.50;;;27.96;100.00
62031;BME280;62035;52.094;5.112;2023-05-22T12:41:36;101525.94;;;27.51;100.00
62031;BME280;62035;52.094;5.112;2023-05-22T12:44:03;101524.63;;;28.33;100.00
62031;BME280;62035;52.094;5.112;2023-05-22T12:46:32;101521.78;;;28.11;100.00
62031;BME280;62035;52.094;5.112;2023-05-22T12:49:00;101527.75;;;28.80;100.00
62031;BME280;62035;52.094;5.112;2023-05-22T12:51:29;101525.59;;;29.26;100.00
62031;BME280;62035;52.094;5.112;2023-05-22T12:53:58;101523.00;;;28.92;100.00